sensor_id;sensor_type;location;lat;lon;timestamp;temperature;humidity
25468;DHT22;13384;24.794;110.498;2023-04-03T00:00:12;21.70;99.90
25468;DHT22;13384;24.794;110.498;2023-04-03T00:02:45;21.70;99.90
25468;DHT22;13384;24.794;110.498;2023-04-03T00:05:23;21.70;99.90
25468;DHT22;13384;24.794;110.498;2023-04-03T00:07:55;21.80;99.90
25468;DHT22;13384;24.794;110.498;2023-04-03T00:10:29;22.10;99.90
25468;DHT22;13384;24.794;110.498;2023-04-03T00:13:02;22.30;99.90
25468;DHT22;13384;24.794;110.498;2023-04-03T00:15:35;22.10;99.90
25468;DHT22;13384;24.794;110.498;2023-04-03T00:18:08;22.00;99.90
25468;DHT22;13384;24.794;110.498;2023-04-03T00:20:40;22.20;99.90
25468;DHT22;13384;24.794;110.498;2023-04-03T00:23:13;22.20;99.90
25468;DHT22;13384;24.794;110.498;2023-04-03T00:25:46;22.30;99.90
25468;DHT22;13384;24.794;110.498;2023-04-03T00:28:18;22.30;99.90
25468;DHT22;13384;24.794;110.498;2023-04-03T00:31:10;22.30;99.90
25468;DHT22;13384;24.794;110.498;2023-04-03T00:33:42;22.40;99.90
25468;DHT22;13384;24.794;110.498;2023-04-03T00:36:15;22.50;99.90
25468;DHT22;13384;24.794;110.498;2023-04-03T00:38:47;22.50;99.90
25468;DHT22;13384;24.794;110.498;2023-04-03T00:41:20;22.50;99.90
25468;DHT22;13384;24.794;110.498;2023-04-03T00:43:55;22.40;99.90
25468;DHT22;13384;24.794;110.498;2023-04-03T00:46:27;22.40;99.90
25468;DHT22;13384;24.794;110.498;2023-04-03T00:49:19;22.10;99.90
25468;DHT22;13384;24.794;110.498;2023-04-03T00:52:16;22.40;99.90
25468;DHT22;13384;24.794;110.498;2023-04-03T00:54:52;22.20;99.90
25468;DHT22;13384;24.794;110.498;2023-04-03T00:57:27;22.20;99.90
25468;DHT22;13384;24.794;110.498;2023-04-03T01:00:06;22.70;99.90
25468;DHT22;13384;24.794;110.498;2023-04-03T01:02:40;22.70;99.90
25468;DHT22;13384;24.794;110.498;2023-04-03T01:05:16;22.60;99.90
25468;DHT22;13384;24.794;110.498;2023-04-03T01:07:51;22.80;99.90
25468;DHT22;13384;24.794;110.498;2023-04-03T01:10:26;22.80;99.90
25468;DHT22;13384;24.794;110.498;2023-04-03T01:13:00;22.70;99.90
25468;DHT22;13384;24.794;110.498;2023-04-03T01:15:32;22.70;99.90
25468;DHT22;13384;24.794;110.498;2023-04-03T01:18:10;22.80;99.90
25468;DHT22;13384;24.794;110.498;2023-04-03T01:24:32;22.90;99.90
25468;DHT22;13384;24.794;110.498;2023-04-03T01:27:10;23.20;99.90
25468;DHT22;13384;24.794;110.498;2023-04-03T01:29:42;23.10;99.90
25468;DHT22;13384;24.794;110.498;2023-04-03T01:32:14;23.10;99.90
25468;DHT22;13384;24.794;110.498;2023-04-03T01:34:47;23.00;99.90
25468;DHT22;13384;24.794;110.498;2023-04-03T01:37:19;22.60;99.90
25468;DHT22;13384;24.794;110.498;2023-04-03T01:39:51;22.40;99.90
25468;DHT22;13384;24.794;110.498;2023-04-03T01:42:23;22.40;99.90
25468;DHT22;13384;24.794;110.498;2023-04-03T01:44:58;22.10;99.90
25468;DHT22;13384;24.794;110.498;2023-04-03T01:47:35;22.30;99.90
25468;DHT22;13384;24.794;110.498;2023-04-03T01:50:17;22.30;99.90
25468;DHT22;13384;24.794;110.498;2023-04-03T01:52:50;22.10;99.90
25468;DHT22;13384;24.794;110.498;2023-04-03T01:55:23;21.90;99.90
25468;DHT22;13384;24.794;110.498;2023-04-03T01:57:55;21.50;99.90
25468;DHT22;13384;24.794;110.498;2023-04-03T02:00:47;21.70;99.90
25468;DHT22;13384;24.794;110.498;2023-04-03T02:03:21;21.90;99.90
25468;DHT22;13384;24.794;110.498;2023-04-03T02:05:54;22.00;99.90
25468;DHT22;13384;24.794;110.498;2023-04-03T02:08:29;21.90;99.90
25468;DHT22;13384;24.794;110.498;2023-04-03T02:11:02;21.70;99.90
25468;DHT22;13384;24.794;110.498;2023-04-03T02:13:34;21.40;99.90
25468;DHT22;13384;24.794;110.498;2023-04-03T02:16:10;21.80;99.90
25468;DHT22;13384;24.794;110.498;2023-04-03T02:18:44;20.70;99.90
25468;DHT22;13384;24.794;110.498;2023-04-03T02:21:18;21.30;99.90
25468;DHT22;13384;24.794;110.498;2023-04-03T02:23:51;21.60;99.90
25468;DHT22;13384;24.794;110.498;2023-04-03T02:26:23;21.80;99.90
25468;DHT22;13384;24.794;110.498;2023-04-03T02:29:02;21.60;99.90
25468;DHT22;13384;24.794;110.498;2023-04-03T02:31:37;21.70;99.90
25468;DHT22;13384;24.794;110.498;2023-04-03T02:34:11;21.30;99.90
25468;DHT22;13384;24.794;110.498;2023-04-03T02:36:44;21.80;99.90
25468;DHT22;13384;24.794;110.498;2023-04-03T02:39:18;22.00;99.90
25468;DHT22;13384;24.794;110.498;2023-04-03T02:41:51;22.00;99.90
25468;DHT22;13384;24.794;110.498;2023-04-03T02:44:26;22.00;99.90
25468;DHT22;13384;24.794;110.498;2023-04-03T02:46:58;22.00;99.90
25468;DHT22;13384;24.794;110.498;2023-04-03T02:49:31;22.00;99.90
25468;DHT22;13384;24.794;110.498;2023-04-03T02:52:03;21.80;99.90
25468;DHT22;13384;24.794;110.498;2023-04-03T02:54:36;21.90;99.90
25468;DHT22;13384;24.794;110.498;2023-04-03T02:57:11;22.30;99.90
25468;DHT22;13384;24.794;110.498;2023-04-03T02:59:44;22.40;99.90
25468;DHT22;13384;24.794;110.498;2023-04-03T03:02:17;22.40;99.90
25468;DHT22;13384;24.794;110.498;2023-04-03T03:04:49;22.80;99.90
25468;DHT22;13384;24.794;110.498;2023-04-03T03:07:21;22.50;99.90
25468;DHT22;13384;24.794;110.498;2023-04-03T03:09:54;22.60;99.90
25468;DHT22;13384;24.794;110.498;2023-04-03T03:12:27;22.80;99.90
25468;DHT22;13384;24.794;110.498;2023-04-03T03:15:01;23.00;99.90
25468;DHT22;13384;24.794;110.498;2023-04-03T03:17:32;22.90;99.90
25468;DHT22;13384;24.794;110.498;2023-04-03T03:20:05;22.80;99.90
25468;DHT22;13384;24.794;110.498;2023-04-03T03:22:38;22.70;99.90
25468;DHT22;13384;24.794;110.498;2023-04-03T03:25:11;22.30;99.90
25468;DHT22;13384;24.794;110.498;2023-04-03T03:27:43;22.30;99.90
25468;DHT22;13384;24.794;110.498;2023-04-03T03:30:19;22.00;99.90
25468;DHT22;13384;24.794;110.498;2023-04-03T03:33:10;22.30;99.90
25468;DHT22;13384;24.794;110.498;2023-04-03T03:36:02;22.00;99.90
25468;DHT22;13384;24.794;110.498;2023-04-03T03:38:37;22.20;99.90
25468;DHT22;13384;24.794;110.498;2023-04-03T03:41:16;22.20;99.90
25468;DHT22;13384;24.794;110.498;2023-04-03T03:43:48;22.20;99.90
25468;DHT22;13384;24.794;110.498;2023-04-03T03:46:21;22.20;99.90
25468;DHT22;13384;24.794;110.498;2023-04-03T03:48:55;22.40;99.90
25468;DHT22;13384;24.794;110.498;2023-04-03T03:51:27;22.00;99.90
25468;DHT22;13384;24.794;110.498;2023-04-03T03:53:59;21.60;99.90
25468;DHT22;13384;24.794;110.498;2023-04-03T03:56:31;21.90;99.90
25468;DHT22;13384;24.794;110.498;2023-04-03T03:59:10;22.10;99.90
25468;DHT22;13384;24.794;110.498;2023-04-03T04:01:42;22.10;99.90
25468;DHT22;13384;24.794;110.498;2023-04-03T04:04:14;21.80;99.90
25468;DHT22;13384;24.794;110.498;2023-04-03T04:07:05;21.30;99.90
25468;DHT22;13384;24.794;110.498;2023-04-03T04:09:37;21.60;99.90
25468;DHT22;13384;24.794;110.498;2023-04-03T04:12:09;21.90;99.90
25468;DHT22;13384;24.794;110.498;2023-04-03T04:14:42;22.00;99.90
25468;DHT22;13384;24.794;110.498;2023-04-03T04:17:16;21.70;99.90
25468;DHT22;13384;24.794;110.498;2023-04-03T04:19:48;20.90;99.90
25468;DHT22;13384;24.794;110.498;2023-04-03T04:22:23;21.30;99.90
25468;DHT22;13384;24.794;110.498;2023-04-03T04:24:57;21.60;99.90
25468;DHT22;13384;24.794;110.498;2023-04-03T04:27:28;21.80;99.90
25468;DHT22;13384;24.794;110.498;2023-04-03T04:30:00;21.90;99.90
25468;DHT22;13384;24.794;110.498;2023-04-03T04:32:34;22.00;99.90
25468;DHT22;13384;24.794;110.498;2023-04-03T04:35:07;22.00;99.90
25468;DHT22;13384;24.794;110.498;2023-04-03T04:37:42;22.00;99.90
25468;DHT22;13384;24.794;110.498;2023-04-03T04:40:15;21.50;99.90
25468;DHT22;13384;24.794;110.498;2023-04-03T04:42:47;21.60;99.90
25468;DHT22;13384;24.794;110.498;2023-04-03T04:45:19;21.50;99.90
25468;DHT22;13384;24.794;110.498;2023-04-03T04:47:54;21.80;99.90
25468;DHT22;13384;24.794;110.498;2023-04-03T04:50:27;21.90;99.90
25468;DHT22;13384;24.794;110.498;2023-04-03T04:53:21;21.80;99.90
25468;DHT22;13384;24.794;110.498;2023-04-03T04:55:54;22.00;99.90
25468;DHT22;13384;24.794;110.498;2023-04-03T04:58:27;22.00;99.90
25468;DHT22;13384;24.794;110.498;2023-04-03T05:01:21;22.00;99.90
25468;DHT22;13384;24.794;110.498;2023-04-03T05:03:59;21.80;99.90
25468;DHT22;13384;24.794;110.498;2023-04-03T05:06:35;22.00;99.90
25468;DHT22;13384;24.794;110.498;2023-04-03T05:09:15;22.00;99.90
25468;DHT22;13384;24.794;110.498;2023-04-03T05:11:47;21.90;99.90
25468;DHT22;13384;24.794;110.498;2023-04-03T05:14:24;22.00;99.90
25468;DHT22;13384;24.794;110.498;2023-04-03T05:17:11;22.10;99.90
25468;DHT22;13384;24.794;110.498;2023-04-03T05:19:48;21.80;99.90
25468;DHT22;13384;24.794;110.498;2023-04-03T05:22:22;22.00;99.90
25468;DHT22;13384;24.794;110.498;2023-04-03T05:25:21;22.00;99.90
25468;DHT22;13384;24.794;110.498;2023-04-03T05:27:57;22.10;99.90
25468;DHT22;13384;24.794;110.498;2023-04-03T05:30:28;22.10;99.90
25468;DHT22;13384;24.794;110.498;2023-04-03T05:33:00;21.80;99.90
25468;DHT22;13384;24.794;110.498;2023-04-03T05:35:38;21.70;99.90
25468;DHT22;13384;24.794;110.498;2023-04-03T05:38:17;21.40;99.90
25468;DHT22;13384;24.794;110.498;2023-04-03T05:40:49;21.50;99.90
25468;DHT22;13384;24.794;110.498;2023-04-03T05:43:21;21.90;99.90
25468;DHT22;13384;24.794;110.498;2023-04-03T05:45:52;22.20;99.90
25468;DHT22;13384;24.794;110.498;2023-04-03T05:48:46;22.20;99.90
25468;DHT22;13384;24.794;110.498;2023-04-03T05:51:33;22.30;99.90
25468;DHT22;13384;24.794;110.498;2023-04-03T05:54:31;22.50;99.90
25468;DHT22;13384;24.794;110.498;2023-04-03T05:57:11;22.40;99.90
25468;DHT22;13384;24.794;110.498;2023-04-03T06:00:04;22.50;99.90
25468;DHT22;13384;24.794;110.498;2023-04-03T06:02:41;22.50;99.90
25468;DHT22;13384;24.794;110.498;2023-04-03T06:05:20;22.60;99.90
25468;DHT22;13384;24.794;110.498;2023-04-03T06:07:56;22.60;99.90
25468;DHT22;13384;24.794;110.498;2023-04-03T06:10:47;22.60;99.90
25468;DHT22;13384;24.794;110.498;2023-04-03T06:13:19;22.50;99.90
25468;DHT22;13384;24.794;110.498;2023-04-03T06:15:52;22.60;99.90
25468;DHT22;13384;24.794;110.498;2023-04-03T06:18:28;22.60;99.90
25468;DHT22;13384;24.794;110.498;2023-04-03T06:21:03;22.50;99.90
25468;DHT22;13384;24.794;110.498;2023-04-03T06:23:35;22.50;99.90
25468;DHT22;13384;24.794;110.498;2023-04-03T06:26:07;22.50;99.90
25468;DHT22;13384;24.794;110.498;2023-04-03T06:28:58;22.60;99.90
25468;DHT22;13384;24.794;110.498;2023-04-03T06:31:34;22.50;99.90
25468;DHT22;13384;24.794;110.498;2023-04-03T06:34:11;22.50;99.90
25468;DHT22;13384;24.794;110.498;2023-04-03T06:36:43;22.50;99.90
25468;DHT22;13384;24.794;110.498;2023-04-03T06:39:38;22.50;99.90
25468;DHT22;13384;24.794;110.498;2023-04-03T06:42:10;22.40;99.90
25468;DHT22;13384;24.794;110.498;2023-04-03T06:45:11;22.40;99.90
25468;DHT22;13384;24.794;110.498;2023-04-03T06:47:44;22.00;99.90
25468;DHT22;13384;24.794;110.498;2023-04-03T06:50:17;21.70;99.90
25468;DHT22;13384;24.794;110.498;2023-04-03T06:52:49;21.90;99.90
25468;DHT22;13384;24.794;110.498;2023-04-03T06:55:21;22.10;99.90
25468;DHT22;13384;24.794;110.498;2023-04-03T06:57:53;22.70;99.90
25468;DHT22;13384;24.794;110.498;2023-04-03T07:00:24;22.80;99.90
25468;DHT22;13384;24.794;110.498;2023-04-03T07:02:57;23.00;99.90
25468;DHT22;13384;24.794;110.498;2023-04-03T07:05:29;23.00;99.90
25468;DHT22;13384;24.794;110.498;2023-04-03T07:08:20;22.90;99.90
25468;DHT22;13384;24.794;110.498;2023-04-03T07:10:54;22.90;99.90
25468;DHT22;13384;24.794;110.498;2023-04-03T07:13:30;22.90;99.90
25468;DHT22;13384;24.794;110.498;2023-04-03T07:16:06;22.70;99.90
25468;DHT22;13384;24.794;110.498;2023-04-03T07:18:43;22.40;99.90
25468;DHT22;13384;24.794;110.498;2023-04-03T07:21:35;22.30;99.90
25468;DHT22;13384;24.794;110.498;2023-04-03T07:24:07;22.70;99.90
25468;DHT22;13384;24.794;110.498;2023-04-03T07:26:44;22.80;99.90
25468;DHT22;13384;24.794;110.498;2023-04-03T07:29:45;22.60;99.90
25468;DHT22;13384;24.794;110.498;2023-04-03T07:32:18;22.60;99.90
25468;DHT22;13384;24.794;110.498;2023-04-03T07:34:53;22.70;99.90
25468;DHT22;13384;24.794;110.498;2023-04-03T07:37:24;22.80;99.90
25468;DHT22;13384;24.794;110.498;2023-04-03T07:40:17;22.80;99.90
25468;DHT22;13384;24.794;110.498;2023-04-03T07:43:09;22.90;99.90
25468;DHT22;13384;24.794;110.498;2023-04-03T07:45:41;22.90;99.90
25468;DHT22;13384;24.794;110.498;2023-04-03T07:48:13;22.80;99.90
25468;DHT22;13384;24.794;110.498;2023-04-03T07:50:44;22.80;99.90
25468;DHT22;13384;24.794;110.498;2023-04-03T07:53:16;22.60;99.90
25468;DHT22;13384;24.794;110.498;2023-04-03T07:55:48;22.70;99.90
25468;DHT22;13384;24.794;110.498;2023-04-03T07:58:26;22.60;99.90
25468;DHT22;13384;24.794;110.498;2023-04-03T08:04:58;23.00;99.90
25468;DHT22;13384;24.794;110.498;2023-04-03T08:07:32;23.10;99.90
25468;DHT22;13384;24.794;110.498;2023-04-03T08:10:23;23.20;99.90
25468;DHT22;13384;24.794;110.498;2023-04-03T08:12:54;23.10;99.90
25468;DHT22;13384;24.794;110.498;2023-04-03T08:15:26;23.00;99.90
25468;DHT22;13384;24.794;110.498;2023-04-03T08:17:59;23.00;99.90
25468;DHT22;13384;24.794;110.498;2023-04-03T08:20:31;23.10;99.90
25468;DHT22;13384;24.794;110.498;2023-04-03T08:23:03;23.00;99.90
25468;DHT22;13384;24.794;110.498;2023-04-03T08:25:46;23.20;99.90
25468;DHT22;13384;24.794;110.498;2023-04-03T08:28:20;23.30;99.90
25468;DHT22;13384;24.794;110.498;2023-04-03T08:30:51;23.20;99.90
25468;DHT22;13384;24.794;110.498;2023-04-03T08:33:23;23.60;99.90
25468;DHT22;13384;24.794;110.498;2023-04-03T08:35:54;23.70;99.90
25468;DHT22;13384;24.794;110.498;2023-04-03T08:38:25;23.70;99.90
25468;DHT22;13384;24.794;110.498;2023-04-03T08:41:35;23.80;99.90
25468;DHT22;13384;24.794;110.498;2023-04-03T08:47:25;23.50;99.90
25468;DHT22;13384;24.794;110.498;2023-04-03T08:50:15;23.60;99.90
25468;DHT22;13384;24.794;110.498;2023-04-03T08:52:56;23.40;99.90
25468;DHT22;13384;24.794;110.498;2023-04-03T08:55:51;23.50;99.90
25468;DHT22;13384;24.794;110.498;2023-04-03T08:58:33;23.40;99.90
25468;DHT22;13384;24.794;110.498;2023-04-03T09:01:24;23.30;99.90
25468;DHT22;13384;24.794;110.498;2023-04-03T09:03:57;23.30;99.90
25468;DHT22;13384;24.794;110.498;2023-04-03T09:06:32;23.20;99.90
25468;DHT22;13384;24.794;110.498;2023-04-03T09:09:35;22.90;99.90
25468;DHT22;13384;24.794;110.498;2023-04-03T09:12:25;22.80;99.90
25468;DHT22;13384;24.794;110.498;2023-04-03T09:15:20;23.00;99.90
25468;DHT22;13384;24.794;110.498;2023-04-03T09:18:32;23.10;99.90
25468;DHT22;13384;24.794;110.498;2023-04-03T09:21:32;23.10;99.90
25468;DHT22;13384;24.794;110.498;2023-04-03T09:24:07;23.00;99.90
25468;DHT22;13384;24.794;110.498;2023-04-03T09:29:22;22.80;99.90
25468;DHT22;13384;24.794;110.498;2023-04-03T09:32:02;22.90;99.90
25468;DHT22;13384;24.794;110.498;2023-04-03T09:35:18;22.80;99.90
25468;DHT22;13384;24.794;110.498;2023-04-03T09:41:26;22.90;99.90
25468;DHT22;13384;24.794;110.498;2023-04-03T09:43:59;22.90;99.90
25468;DHT22;13384;24.794;110.498;2023-04-03T09:46:32;22.90;99.90
25468;DHT22;13384;24.794;110.498;2023-04-03T09:49:08;22.80;99.90
25468;DHT22;13384;24.794;110.498;2023-04-03T09:51:41;22.30;99.90
25468;DHT22;13384;24.794;110.498;2023-04-03T09:54:34;22.50;99.90
25468;DHT22;13384;24.794;110.498;2023-04-03T09:57:12;22.70;99.90
25468;DHT22;13384;24.794;110.498;2023-04-03T09:59:57;22.70;99.90
25468;DHT22;13384;24.794;110.498;2023-04-03T10:02:39;22.60;99.90
25468;DHT22;13384;24.794;110.498;2023-04-03T10:08:22;22.50;99.90
25468;DHT22;13384;24.794;110.498;2023-04-03T10:11:13;22.70;99.90
25468;DHT22;13384;24.794;110.498;2023-04-03T10:14:00;22.60;99.90
25468;DHT22;13384;24.794;110.498;2023-04-03T10:16:40;22.30;99.90
25468;DHT22;13384;24.794;110.498;2023-04-03T10:19:37;22.50;99.90
25468;DHT22;13384;24.794;110.498;2023-04-03T10:22:22;22.40;99.90
25468;DHT22;13384;24.794;110.498;2023-04-03T10:29:36;22.30;99.90
25468;DHT22;13384;24.794;110.498;2023-04-03T10:32:12;22.40;99.90
25468;DHT22;13384;24.794;110.498;2023-04-03T10:41:47;22.50;99.90
25468;DHT22;13384;24.794;110.498;2023-04-03T10:47:56;22.20;99.90
25468;DHT22;13384;24.794;110.498;2023-04-03T10:53:30;22.20;99.90
25468;DHT22;13384;24.794;110.498;2023-04-03T10:56:30;21.70;99.90
25468;DHT22;13384;24.794;110.498;2023-04-03T10:59:46;21.80;99.90
25468;DHT22;13384;24.794;110.498;2023-04-03T11:02:59;22.10;99.90
25468;DHT22;13384;24.794;110.498;2023-04-03T11:05:43;21.20;99.90
25468;DHT22;13384;24.794;110.498;2023-04-03T11:08:42;21.30;99.90
25468;DHT22;13384;24.794;110.498;2023-04-03T11:11:19;21.80;99.90
25468;DHT22;13384;24.794;110.498;2023-04-03T11:16:36;21.50;99.90
25468;DHT22;13384;24.794;110.498;2023-04-03T11:19:34;22.30;99.90
25468;DHT22;13384;24.794;110.498;2023-04-03T11:25:23;22.30;99.90
25468;DHT22;13384;24.794;110.498;2023-04-03T11:28:20;22.20;99.90
25468;DHT22;13384;24.794;110.498;2023-04-03T11:31:23;22.10;99.90
25468;DHT22;13384;24.794;110.498;2023-04-03T11:37:01;22.00;99.90
25468;DHT22;13384;24.794;110.498;2023-04-03T11:40:01;21.60;99.90
25468;DHT22;13384;24.794;110.498;2023-04-03T11:46:08;21.60;99.90
25468;DHT22;13384;24.794;110.498;2023-04-03T11:48:46;21.80;99.90
25468;DHT22;13384;24.794;110.498;2023-04-03T11:54:44;21.70;99.90
25468;DHT22;13384;24.794;110.498;2023-04-03T11:57:43;21.60;99.90
25468;DHT22;13384;24.794;110.498;2023-04-03T12:12:30;21.60;99.90
25468;DHT22;13384;24.794;110.498;2023-04-03T12:15:24;20.70;99.90
25468;DHT22;13384;24.794;110.498;2023-04-03T12:17:56;21.40;99.90
25468;DHT22;13384;24.794;110.498;2023-04-03T12:41:24;21.20;99.90
25468;DHT22;13384;24.794;110.498;2023-04-03T12:44:33;21.10;99.90
25468;DHT22;13384;24.794;110.498;2023-04-03T12:49:59;21.00;99.90
25468;DHT22;13384;24.794;110.498;2023-04-03T12:55:38;21.20;99.90
25468;DHT22;13384;24.794;110.498;2023-04-03T12:58:27;20.90;99.90
25468;DHT22;13384;24.794;110.498;2023-04-03T13:01:09;21.40;99.90
25468;DHT22;13384;24.794;110.498;2023-04-03T13:04:02;21.40;99.90
25468;DHT22;13384;24.794;110.498;2023-04-03T13:06:43;21.30;99.90
25468;DHT22;13384;24.794;110.498;2023-04-03T13:09:31;21.40;99.90
25468;DHT22;13384;24.794;110.498;2023-04-03T13:12:15;21.30;99.90
25468;DHT22;13384;24.794;110.498;2023-04-03T13:14:57;21.00;99.90
25468;DHT22;13384;24.794;110.498;2023-04-03T13:17:31;21.10;99.90
25468;DHT22;13384;24.794;110.498;2023-04-03T13:20:20;21.30;99.90
25468;DHT22;13384;24.794;110.498;2023-04-03T13:22:58;20.70;99.90
25468;DHT22;13384;24.794;110.498;2023-04-03T13:25:44;21.00;99.90
25468;DHT22;13384;24.794;110.498;2023-04-03T13:28:23;20.90;99.90
25468;DHT22;13384;24.794;110.498;2023-04-03T13:31:08;21.10;99.90
25468;DHT22;13384;24.794;110.498;2023-04-03T13:34:17;20.90;99.90
25468;DHT22;13384;24.794;110.498;2023-04-03T13:37:00;21.10;99.90
25468;DHT22;13384;24.794;110.498;2023-04-03T13:39:38;21.10;99.90
25468;DHT22;13384;24.794;110.498;2023-04-03T13:42:32;20.90;99.90
25468;DHT22;13384;24.794;110.498;2023-04-03T13:47:47;21.00;99.90
25468;DHT22;13384;24.794;110.498;2023-04-03T13:50:25;21.10;99.90
25468;DHT22;13384;24.794;110.498;2023-04-03T13:53:17;20.60;99.90
25468;DHT22;13384;24.794;110.498;2023-04-03T13:56:13;20.80;99.90
25468;DHT22;13384;24.794;110.498;2023-04-03T14:04:53;21.00;99.90
25468;DHT22;13384;24.794;110.498;2023-04-03T14:07:42;21.00;99.90
25468;DHT22;13384;24.794;110.498;2023-04-03T14:10:44;20.70;99.90
25468;DHT22;13384;24.794;110.498;2023-04-03T14:13:21;20.60;99.90
25468;DHT22;13384;24.794;110.498;2023-04-03T14:16:23;20.60;99.90
25468;DHT22;13384;24.794;110.498;2023-04-03T14:19:06;20.80;99.90
25468;DHT22;13384;24.794;110.498;2023-04-03T14:21:39;20.60;99.90
25468;DHT22;13384;24.794;110.498;2023-04-03T14:24:16;20.90;99.90
25468;DHT22;13384;24.794;110.498;2023-04-03T14:27:27;20.90;99.90
25468;DHT22;13384;24.794;110.498;2023-04-03T14:30:02;20.80;99.90
25468;DHT22;13384;24.794;110.498;2023-04-03T14:32:34;20.90;99.90
25468;DHT22;13384;24.794;110.498;2023-04-03T14:35:07;20.20;99.90
25468;DHT22;13384;24.794;110.498;2023-04-03T14:38:31;20.60;99.90
25468;DHT22;13384;24.794;110.498;2023-04-03T14:41:03;20.70;99.90
25468;DHT22;13384;24.794;110.498;2023-04-03T14:43:46;20.80;99.90
25468;DHT22;13384;24.794;110.498;2023-04-03T14:46:58;20.60;99.90
25468;DHT22;13384;24.794;110.498;2023-04-03T14:49:44;20.70;99.90
25468;DHT22;13384;24.794;110.498;2023-04-03T14:52:23;20.80;99.90
25468;DHT22;13384;24.794;110.498;2023-04-03T14:54:58;20.90;99.90
25468;DHT22;13384;24.794;110.498;2023-04-03T14:57:35;20.80;99.90
25468;DHT22;13384;24.794;110.498;2023-04-03T15:00:16;20.70;99.90
25468;DHT22;13384;24.794;110.498;2023-04-03T15:03:18;20.80;99.90
25468;DHT22;13384;24.794;110.498;2023-04-03T15:05:54;20.80;99.90
25468;DHT22;13384;24.794;110.498;2023-04-03T15:08:28;20.80;99.90
25468;DHT22;13384;24.794;110.498;2023-04-03T15:11:10;20.80;99.90
25468;DHT22;13384;24.794;110.498;2023-04-03T15:14:02;20.90;99.90
25468;DHT22;13384;24.794;110.498;2023-04-03T15:17:21;20.70;99.90
25468;DHT22;13384;24.794;110.498;2023-04-03T15:19:55;20.70;99.90
25468;DHT22;13384;24.794;110.498;2023-04-03T15:22:27;20.90;99.90
25468;DHT22;13384;24.794;110.498;2023-04-03T15:25:18;20.90;99.90
25468;DHT22;13384;24.794;110.498;2023-04-03T15:27:51;20.70;99.90
25468;DHT22;13384;24.794;110.498;2023-04-03T15:30:22;20.70;99.90
25468;DHT22;13384;24.794;110.498;2023-04-03T15:32:55;20.90;99.90
25468;DHT22;13384;24.794;110.498;2023-04-03T15:35:26;20.60;99.90
25468;DHT22;13384;24.794;110.498;2023-04-03T15:38:02;20.90;99.90
25468;DHT22;13384;24.794;110.498;2023-04-03T15:40:35;20.70;99.90
25468;DHT22;13384;24.794;110.498;2023-04-03T15:43:07;20.80;99.90
25468;DHT22;13384;24.794;110.498;2023-04-03T15:45:58;20.80;99.90
25468;DHT22;13384;24.794;110.498;2023-04-03T15:49:03;20.90;99.90
25468;DHT22;13384;24.794;110.498;2023-04-03T15:51:36;20.90;99.90
25468;DHT22;13384;24.794;110.498;2023-04-03T15:54:07;21.00;99.90
25468;DHT22;13384;24.794;110.498;2023-04-03T15:56:55;20.90;99.90
25468;DHT22;13384;24.794;110.498;2023-04-03T15:59:29;21.00;99.90
25468;DHT22;13384;24.794;110.498;2023-04-03T16:02:05;20.60;99.90
25468;DHT22;13384;24.794;110.498;2023-04-03T16:04:37;20.70;99.90
25468;DHT22;13384;24.794;110.498;2023-04-03T16:07:09;20.70;99.90
25468;DHT22;13384;24.794;110.498;2023-04-03T16:09:42;20.90;99.90
25468;DHT22;13384;24.794;110.498;2023-04-03T16:12:13;20.80;99.90
25468;DHT22;13384;24.794;110.498;2023-04-03T16:14:46;20.90;99.90
25468;DHT22;13384;24.794;110.498;2023-04-03T16:17:17;20.70;99.90
25468;DHT22;13384;24.794;110.498;2023-04-03T16:19:49;20.20;99.90
25468;DHT22;13384;24.794;110.498;2023-04-03T16:22:21;20.70;99.90
25468;DHT22;13384;24.794;110.498;2023-04-03T16:24:54;20.90;99.90
25468;DHT22;13384;24.794;110.498;2023-04-03T16:27:27;21.00;99.90
25468;DHT22;13384;24.794;110.498;2023-04-03T16:30:21;20.90;99.90
25468;DHT22;13384;24.794;110.498;2023-04-03T16:32:52;20.50;99.90
25468;DHT22;13384;24.794;110.498;2023-04-03T16:35:25;21.00;99.90
25468;DHT22;13384;24.794;110.498;2023-04-03T16:38:02;20.60;99.90
25468;DHT22;13384;24.794;110.498;2023-04-03T16:40:34;21.00;99.90
25468;DHT22;13384;24.794;110.498;2023-04-03T16:43:08;21.00;99.90
25468;DHT22;13384;24.794;110.498;2023-04-03T16:45:39;20.80;99.90
25468;DHT22;13384;24.794;110.498;2023-04-03T16:48:11;20.70;99.90
25468;DHT22;13384;24.794;110.498;2023-04-03T16:51:04;21.00;99.90
25468;DHT22;13384;24.794;110.498;2023-04-03T16:53:37;21.10;99.90
25468;DHT22;13384;24.794;110.498;2023-04-03T16:56:09;20.90;99.90
25468;DHT22;13384;24.794;110.498;2023-04-03T16:58:42;21.00;99.90
25468;DHT22;13384;24.794;110.498;2023-04-03T17:01:18;20.90;99.90
25468;DHT22;13384;24.794;110.498;2023-04-03T17:03:50;20.90;99.90
25468;DHT22;13384;24.794;110.498;2023-04-03T17:06:22;21.00;99.90
25468;DHT22;13384;24.794;110.498;2023-04-03T17:08:54;20.90;99.90
25468;DHT22;13384;24.794;110.498;2023-04-03T17:11:30;20.30;99.90
25468;DHT22;13384;24.794;110.498;2023-04-03T17:14:14;20.90;99.90
25468;DHT22;13384;24.794;110.498;2023-04-03T17:16:45;21.10;99.90
25468;DHT22;13384;24.794;110.498;2023-04-03T17:19:17;20.90;99.90
25468;DHT22;13384;24.794;110.498;2023-04-03T17:21:48;21.00;99.90
25468;DHT22;13384;24.794;110.498;2023-04-03T17:24:20;21.10;99.90
25468;DHT22;13384;24.794;110.498;2023-04-03T17:26:51;20.90;99.90
25468;DHT22;13384;24.794;110.498;2023-04-03T17:29:22;21.00;99.90
25468;DHT22;13384;24.794;110.498;2023-04-03T17:31:54;21.10;99.90
25468;DHT22;13384;24.794;110.498;2023-04-03T17:34:25;20.80;99.90
25468;DHT22;13384;24.794;110.498;2023-04-03T17:36:57;20.90;99.90
25468;DHT22;13384;24.794;110.498;2023-04-03T17:39:28;21.10;99.90
25468;DHT22;13384;24.794;110.498;2023-04-03T17:41:59;20.90;99.90
25468;DHT22;13384;24.794;110.498;2023-04-03T17:44:31;21.00;99.90
25468;DHT22;13384;24.794;110.498;2023-04-03T17:47:02;21.10;99.90
25468;DHT22;13384;24.794;110.498;2023-04-03T17:49:33;20.70;99.90
25468;DHT22;13384;24.794;110.498;2023-04-03T17:52:05;20.70;99.90
25468;DHT22;13384;24.794;110.498;2023-04-03T17:54:36;21.00;99.90